Terminal Aerodrome Forecast
Issued by NWS Lake Charles, LA

Home | Current Version | Previous Version | Text Only | Print | Product List | Glossary On
Versions: 1 2 3 4 5 6 7 8 9 10 11 12 13 14 15 16
000
FTUS44 KLCH 062320
TAFLFT
TAF
KLFT 062320Z 0700/0724 18008KT P6SM SCT035
     FM070200 18004KT P6SM FEW035
      TEMPO 0710/0714 5SM BR BKN025
     FM071500 18010KT P6SM VCSH SCT035=

USA.gov is the U.S. government's official web portal to all federal, state and local government web resources and services.